DAL2541 KLAX-KSJC
Flight info
| Callsign | DAL2541 |
|---|---|
| Flight time | N/A |
| Altitude | 34000 |
| Route | SUMMR2 SCTRR TROXX SILCN6 |
| Aircraft | B738/M-SDE2E3FGHIRWXY/LB1 |
Departure
| Time | 2026-05-06 21:43 |
|---|---|
| Airport | Los Angeles International Airport (KLAX) |
Arrival
| Time | N/A |
|---|---|
| Airport | Norman Y. Mineta San Jose International Airport (KSJC) |
| Time | Latitude | Longitude | Altitude | Speed | Heading |
|---|---|---|---|---|---|
| 2026-05-06 21:26 | 33.94633 | -118.40833 | 123 ft | 0 kts | 96° |
| 2026-05-06 21:30 | 33.94633 | -118.40834 | 123 ft | 0 kts | 96° |
| 2026-05-06 21:35 | 33.94633 | -118.40833 | 123 ft | 0 kts | 96° |
| 2026-05-06 21:35 | 33.94634 | -118.40840 | 123 ft | 2 kts | 90° |
| 2026-05-06 21:35 | 33.94632 | -118.40858 | 123 ft | 2 kts | 70° |
| 2026-05-06 21:36 | 33.94625 | -118.40874 | 123 ft | 2 kts | 53° |
| 2026-05-06 21:36 | 33.94614 | -118.40887 | 123 ft | 2 kts | 36° |
| 2026-05-06 21:36 | 33.94601 | -118.40895 | 123 ft | 2 kts | 19° |
| 2026-05-06 21:36 | 33.94587 | -118.40899 | 123 ft | 2 kts | 1° |
| 2026-05-06 21:37 | 33.94576 | -118.40897 | 124 ft | 0 kts | 349° |
| 2026-05-06 21:37 | 33.94575 | -118.40897 | 124 ft | 0 kts | 349° |
| 2026-05-06 21:38 | 33.94585 | -118.40900 | 124 ft | 3 kts | 351° |
| 2026-05-06 21:38 | 33.94609 | -118.40903 | 124 ft | 3 kts | 356° |
| 2026-05-06 21:38 | 33.94631 | -118.40905 | 124 ft | 3 kts | 354° |
| 2026-05-06 21:39 | 33.94662 | -118.40910 | 123 ft | 7 kts | 353° |
| 2026-05-06 21:39 | 33.94711 | -118.40917 | 123 ft | 6 kts | 352° |
| 2026-05-06 21:39 | 33.94772 | -118.40902 | 123 ft | 12 kts | 18° |
| 2026-05-06 21:39 | 33.94839 | -118.40842 | 123 ft | 12 kts | 75° |
| 2026-05-06 21:40 | 33.94854 | -118.40720 | 123 ft | 19 kts | 83° |
| 2026-05-06 21:40 | 33.94870 | -118.40560 | 122 ft | 18 kts | 83° |
| 2026-05-06 21:40 | 33.94886 | -118.40408 | 121 ft | 18 kts | 83° |
| 2026-05-06 21:40 | 33.94901 | -118.40254 | 120 ft | 18 kts | 83° |
| 2026-05-06 21:41 | 33.94916 | -118.40104 | 119 ft | 17 kts | 83° |
| 2026-05-06 21:41 | 33.94933 | -118.39963 | 117 ft | 13 kts | 68° |
| 2026-05-06 21:41 | 33.95010 | -118.39924 | 117 ft | 13 kts | 340° |
| 2026-05-06 21:41 | 33.95033 | -118.40044 | 118 ft | 23 kts | 263° |
| 2026-05-06 21:42 | 33.94992 | -118.40429 | 121 ft | 74 kts | 264° |
| 2026-05-06 21:42 | 33.94911 | -118.41280 | 124 ft | 127 kts | 262° |
| 2026-05-06 21:42 | 33.94781 | -118.42503 | 231 ft | 159 kts | 262° |
| 2026-05-06 21:42 | 33.94621 | -118.43816 | 673 ft | 166 kts | 260° |
| 2026-05-06 21:43 | 33.94464 | -118.45257 | 1067 ft | 180 kts | 263° |
| 2026-05-06 21:43 | 33.94347 | -118.46849 | 1405 ft | 199 kts | 266° |
| 2026-05-06 21:43 | 33.94289 | -118.48566 | 1810 ft | 213 kts | 268° |
| 2026-05-06 21:43 | 33.94248 | -118.50414 | 2171 ft | 228 kts | 268° |
| 2026-05-06 21:44 | 33.94140 | -118.52370 | 2625 ft | 238 kts | 266° |
| 2026-05-06 21:44 | 33.93976 | -118.54343 | 3205 ft | 244 kts | 265° |
| 2026-05-06 21:44 | 33.93798 | -118.56413 | 3651 ft | 256 kts | 266° |
| 2026-05-06 21:44 | 33.93619 | -118.58627 | 4096 ft | 268 kts | 267° |
| 2026-05-06 21:45 | 33.93442 | -118.60877 | 4758 ft | 270 kts | 267° |
| 2026-05-06 21:45 | 33.93267 | -118.63100 | 5383 ft | 274 kts | 267° |
| 2026-05-06 21:45 | 33.93087 | -118.65404 | 5999 ft | 278 kts | 267° |
| 2026-05-06 21:45 | 33.92909 | -118.67728 | 6591 ft | 282 kts | 267° |
| 2026-05-06 21:46 | 33.92728 | -118.70099 | 7225 ft | 287 kts | 267° |
| 2026-05-06 21:46 | 33.92542 | -118.72499 | 7850 ft | 291 kts | 267° |
| 2026-05-06 21:46 | 33.92352 | -118.74936 | 8466 ft | 295 kts | 267° |
| 2026-05-06 21:46 | 33.92160 | -118.77383 | 9060 ft | 301 kts | 267° |
| 2026-05-06 21:47 | 33.91960 | -118.79919 | 9698 ft | 307 kts | 267° |
| 2026-05-06 21:47 | 33.91761 | -118.82486 | 10322 ft | 311 kts | 269° |
| 2026-05-06 21:47 | 33.91686 | -118.85172 | 10673 ft | 326 kts | 274° |
| 2026-05-06 21:47 | 33.91748 | -118.87942 | 10960 ft | 340 kts | 276° |
| 2026-05-06 21:48 | 33.91869 | -118.90845 | 11283 ft | 355 kts | 276° |
| 2026-05-06 21:48 | 33.91991 | -118.93860 | 11656 ft | 369 kts | 276° |
| 2026-05-06 21:48 | 33.92105 | -118.96974 | 12243 ft | 373 kts | 275° |